createdAt,value
2023-12-12T00:01:11.938Z,4.07
2023-12-12T00:06:13.762Z,5.50
2023-12-12T00:11:15.485Z,4.30
2023-12-12T00:16:17.200Z,6.00
2023-12-12T00:21:18.923Z,3.60
2023-12-12T00:26:20.591Z,4.18
2023-12-12T00:31:22.274Z,1.73
2023-12-12T00:36:23.914Z,3.83
2023-12-12T00:41:35.139Z,4.88
2023-12-12T00:46:36.915Z,1.58
2023-12-12T00:51:38.793Z,4.25
2023-12-12T00:56:40.496Z,3.28
2023-12-12T01:01:42.456Z,1.67
2023-12-12T01:06:44.180Z,3.57
2023-12-12T01:11:45.908Z,2.65
2023-12-12T01:16:47.630Z,3.08
2023-12-12T01:21:49.387Z,1.77
2023-12-12T01:26:51.052Z,1.77
2023-12-12T01:31:52.801Z,3.53
2023-12-12T01:36:54.471Z,2.60
2023-12-12T01:41:56.148Z,2.97
2023-12-12T01:46:57.913Z,1.92
2023-12-12T01:51:59.672Z,2.58
2023-12-12T01:57:01.309Z,1.77
2023-12-12T02:02:03.648Z,4.28
2023-12-12T02:07:05.651Z,2.53
2023-12-12T02:12:07.436Z,1.70
2023-12-12T02:17:09.652Z,2.05
2023-12-12T02:22:11.346Z,1.33
2023-12-12T02:27:13.380Z,1.20
2023-12-12T02:32:15.044Z,0.87
2023-12-12T02:37:17.080Z,2.25
2023-12-12T02:42:18.923Z,0.93
2023-12-12T02:47:20.625Z,2.20
2023-12-12T02:52:22.488Z,2.45
2023-12-12T02:57:24.348Z,2.17
2023-12-12T03:02:25.979Z,1.15
2023-12-12T03:07:27.606Z,1.25
2023-12-12T03:12:29.319Z,3.60
2023-12-12T03:17:31.492Z,1.00
2023-12-12T03:22:33.542Z,3.33
2023-12-12T03:27:35.514Z,1.52
2023-12-12T03:32:37.276Z,2.83
2023-12-12T03:37:39.385Z,1.50
2023-12-12T03:42:41.134Z,0.80
2023-12-12T03:47:42.815Z,3.72
2023-12-12T03:52:44.526Z,2.00
2023-12-12T03:57:46.135Z,4.43
2023-12-12T04:02:47.803Z,3.42
2023-12-12T04:07:49.747Z,1.52
2023-12-12T04:12:51.492Z,4.97
2023-12-12T04:17:53.276Z,3.50
2023-12-12T04:22:55.095Z,2.38
2023-12-12T04:27:56.728Z,1.83
2023-12-12T04:32:58.472Z,1.23
2023-12-12T04:38:00.164Z,1.33
2023-12-12T04:43:01.882Z,1.92
2023-12-12T04:48:03.650Z,2.35
2023-12-12T04:53:05.417Z,3.00
2023-12-12T04:58:07.101Z,6.65
2023-12-12T05:03:08.805Z,7.20
2023-12-12T05:08:10.443Z,2.38
2023-12-12T05:13:12.278Z,4.05
2023-12-12T05:18:14.171Z,1.97
2023-12-12T05:23:16.013Z,3.15
2023-12-12T05:28:17.664Z,6.80
2023-12-12T05:33:19.362Z,6.97
2023-12-12T05:38:21.052Z,8.85
2023-12-12T05:43:22.799Z,5.65
2023-12-12T05:48:24.457Z,7.97
2023-12-12T05:53:26.121Z,6.80
2023-12-12T05:58:27.880Z,4.70
2023-12-12T06:03:29.642Z,6.40
2023-12-12T06:08:31.403Z,4.50
2023-12-12T06:13:33.196Z,5.65
2023-12-12T06:18:35.015Z,6.10
2023-12-12T06:23:36.647Z,7.75
2023-12-12T06:28:38.384Z,8.35
2023-12-12T06:33:40.129Z,6.45
2023-12-12T06:38:42.276Z,12.32
2023-12-12T06:43:43.918Z,4.33
2023-12-12T06:48:45.628Z,5.47
2023-12-12T06:53:47.632Z,4.90
2023-12-12T06:58:49.303Z,10.55
2023-12-12T07:03:50.966Z,7.97
2023-12-12T07:08:52.931Z,25.67
2023-12-12T07:13:57.059Z,9.40
2023-12-12T07:18:58.853Z,8.30
2023-12-12T07:24:00.601Z,6.43
2023-12-12T07:29:02.170Z,14.10
2023-12-12T07:34:03.811Z,14.93
2023-12-12T07:39:05.523Z,32.42
2023-12-12T07:44:07.376Z,4.80
2023-12-12T07:49:09.586Z,6.35
2023-12-12T07:54:11.377Z,3.30
2023-12-12T07:59:13.281Z,15.02
2023-12-12T08:04:14.992Z,6.88
2023-12-12T08:09:16.600Z,14.80
2023-12-12T08:14:18.432Z,9.88
2023-12-12T08:19:20.396Z,6.15
2023-12-12T08:24:22.156Z,10.33
2023-12-12T08:29:24.297Z,7.32
2023-12-12T08:34:25.978Z,8.17
2023-12-12T08:39:28.030Z,4.80
2023-12-12T08:44:29.701Z,10.93
2023-12-12T08:49:31.505Z,7.20
2023-12-12T08:54:33.706Z,7.70
2023-12-12T08:59:35.667Z,9.30
2023-12-12T09:04:38.140Z,7.10
2023-12-12T09:09:42.127Z,6.43
2023-12-12T09:14:43.947Z,10.85
2023-12-12T09:19:45.762Z,7.38
2023-12-12T09:24:47.581Z,9.43
2023-12-12T09:29:49.863Z,7.82
2023-12-12T09:34:51.543Z,8.35
2023-12-12T09:39:53.319Z,8.02
2023-12-12T09:45:02.053Z,6.88
2023-12-12T09:50:06.156Z,9.00
2023-12-12T09:55:08.260Z,8.88
2023-12-12T10:00:10.384Z,8.63
2023-12-12T10:05:12.518Z,7.87
2023-12-12T10:10:14.730Z,9.93
2023-12-12T10:15:22.563Z,5.78
2023-12-12T10:20:27.641Z,2.40
2023-12-12T10:25:31.258Z,6.22
2023-12-12T10:30:33.028Z,5.45
2023-12-12T10:35:34.859Z,4.53
2023-12-12T10:40:36.678Z,4.03
2023-12-12T10:45:38.975Z,4.40
2023-12-12T10:50:44.160Z,10.97
2023-12-12T10:55:45.908Z,11.68
2023-12-12T11:00:48.965Z,5.78
2023-12-12T11:05:51.523Z,3.97
2023-12-12T11:10:53.441Z,7.28
2023-12-12T11:15:57.535Z,5.47
2023-12-12T11:20:59.374Z,6.82
2023-12-12T11:26:01.365Z,7.43
2023-12-12T11:31:03.752Z,13.20
2023-12-12T11:36:06.294Z,3.55
2023-12-12T11:41:11.889Z,5.37
2023-12-12T11:46:18.456Z,34.53
2023-12-12T11:51:35.238Z,9.90
2023-12-12T11:56:40.469Z,9.70
2023-12-12T12:01:42.576Z,7.63
2023-12-12T12:06:44.662Z,5.73
2023-12-12T12:11:47.284Z,4.83
2023-12-12T12:16:51.479Z,4.40
2023-12-12T12:21:53.151Z,12.73
2023-12-12T12:26:55.178Z,6.30
2023-12-12T12:31:57.038Z,6.43
2023-12-12T12:37:01.761Z,4.30
2023-12-12T12:42:04.238Z,4.45
2023-12-12T12:47:05.932Z,6.80
2023-12-12T12:52:07.585Z,5.25
2023-12-12T12:57:12.988Z,3.90
2023-12-12T13:02:14.722Z,7.68
2023-12-12T13:07:16.556Z,7.53
2023-12-12T13:12:18.284Z,8.50
2023-12-12T13:17:19.937Z,8.57
2023-12-12T13:22:21.636Z,10.45
2023-12-12T13:27:23.320Z,10.52
2023-12-12T13:32:25.104Z,12.52
2023-12-12T13:37:26.914Z,7.32
2023-12-12T13:42:28.627Z,7.55
2023-12-12T13:47:30.684Z,3.75
2023-12-12T13:52:32.530Z,5.33
2023-12-12T13:57:34.321Z,6.70
2023-12-12T14:02:36.263Z,4.68
2023-12-12T14:07:38.235Z,8.37
2023-12-12T14:12:39.983Z,4.63
2023-12-12T14:17:41.732Z,10.23
2023-12-12T14:22:44.109Z,7.63
2023-12-12T14:27:46.490Z,6.40
2023-12-12T14:32:48.292Z,9.25
2023-12-12T14:37:50.078Z,9.43
2023-12-12T14:42:51.804Z,9.10
2023-12-12T14:47:53.600Z,11.38
2023-12-12T14:52:55.272Z,13.48
2023-12-12T14:58:01.005Z,14.57
2023-12-12T15:03:03.330Z,19.85
2023-12-12T15:08:05.084Z,22.17
2023-12-12T15:13:06.974Z,18.70
2023-12-12T15:18:09.817Z,22.33
2023-12-12T15:28:24.767Z,21.20
2023-12-12T15:33:31.385Z,20.30
2023-12-12T15:38:35.347Z,11.43
2023-12-12T15:43:37.184Z,11.87
2023-12-12T15:48:38.904Z,9.70
2023-12-12T15:53:40.581Z,9.50
2023-12-12T15:58:42.358Z,12.52
2023-12-12T16:03:44.119Z,9.73
2023-12-12T16:08:45.862Z,6.18
2023-12-12T16:13:48.348Z,7.38
2023-12-12T16:18:50.117Z,8.85
2023-12-12T16:23:51.770Z,15.20
2023-12-12T16:28:53.383Z,10.48
2023-12-12T16:33:55.196Z,11.65
2023-12-12T16:38:59.976Z,31.17
2023-12-12T16:44:01.609Z,12.70
2023-12-12T16:49:03.444Z,16.13
2023-12-12T16:54:05.249Z,38.87
2023-12-12T16:59:07.512Z,39.67
2023-12-12T17:04:09.572Z,33.97
2023-12-12T17:09:11.513Z,40.33
2023-12-12T17:14:13.171Z,42.67
2023-12-12T17:19:14.884Z,32.38
2023-12-12T17:24:16.618Z,44.03
2023-12-12T17:29:18.284Z,41.40
2023-12-12T17:34:20.005Z,59.80
2023-12-12T17:39:21.758Z,76.95
2023-12-12T17:44:23.568Z,73.78
2023-12-12T17:49:25.399Z,61.45
2023-12-12T17:54:27.164Z,76.68
2023-12-12T17:59:28.911Z,75.05
2023-12-12T18:04:32.616Z,72.90
2023-12-12T18:09:35.204Z,75.22
2023-12-12T18:14:38.493Z,68.85
2023-12-12T18:19:40.613Z,68.80
2023-12-12T18:24:42.463Z,65.17
2023-12-12T18:29:45.821Z,60.22
2023-12-12T18:34:47.685Z,64.38
2023-12-12T18:39:50.788Z,64.50
2023-12-12T18:44:52.808Z,64.63
2023-12-12T18:49:56.314Z,55.05
2023-12-12T18:55:00.246Z,56.47
2023-12-12T19:00:04.179Z,51.65
2023-12-12T19:05:07.571Z,59.95
2023-12-12T19:10:10.041Z,51.92
2023-12-12T19:15:13.218Z,57.95
2023-12-12T19:20:17.482Z,57.20
2023-12-12T19:25:21.757Z,53.35
2023-12-12T19:30:25.844Z,58.65
2023-12-12T19:35:29.618Z,59.60
2023-12-12T19:40:34.386Z,54.25
2023-12-12T19:45:38.609Z,59.80
2023-12-12T19:50:43.688Z,50.70
2023-12-12T19:55:46.003Z,64.10
2023-12-12T20:00:50.837Z,58.53
2023-12-12T20:05:52.821Z,53.25
2023-12-12T20:10:55.226Z,61.13
2023-12-12T20:15:56.882Z,74.97
2023-12-12T20:20:58.534Z,79.10
2023-12-12T20:26:00.343Z,76.13
2023-12-12T20:31:02.057Z,76.35
2023-12-12T20:36:03.881Z,62.58
2023-12-12T20:41:08.708Z,75.57
2023-12-12T20:46:10.479Z,72.53
2023-12-12T20:51:12.329Z,69.43
2023-12-12T20:56:13.955Z,66.38
2023-12-12T21:01:15.810Z,66.45
2023-12-12T21:06:17.656Z,73.25
2023-12-12T21:11:19.360Z,77.25
2023-12-12T21:16:21.146Z,79.85
2023-12-12T21:21:22.822Z,87.75
2023-12-12T21:26:24.488Z,80.72
2023-12-12T21:31:26.224Z,81.38
2023-12-12T21:36:27.873Z,78.05
2023-12-12T21:41:29.489Z,74.30
2023-12-12T21:46:31.313Z,73.32
2023-12-12T21:51:32.971Z,71.97
2023-12-12T21:56:34.599Z,76.60
2023-12-12T22:01:36.306Z,62.05
2023-12-12T22:06:38.689Z,80.40
2023-12-12T22:11:40.465Z,69.72
2023-12-12T22:16:42.136Z,66.70
2023-12-12T22:21:43.807Z,71.55
2023-12-12T22:26:45.448Z,75.95
2023-12-12T22:31:47.164Z,66.28
2023-12-12T22:36:48.824Z,84.45
2023-12-12T22:41:50.496Z,71.22
2023-12-12T22:46:52.228Z,69.22
2023-12-12T22:51:53.912Z,65.00
2023-12-12T22:56:55.601Z,68.47
2023-12-12T23:01:57.358Z,74.03
2023-12-12T23:06:59.085Z,67.70
2023-12-12T23:12:00.660Z,72.80
2023-12-12T23:17:02.384Z,73.47
2023-12-12T23:22:04.041Z,71.55
2023-12-12T23:27:05.825Z,69.15
2023-12-12T23:32:07.655Z,72.38
2023-12-12T23:37:09.500Z,71.32
2023-12-12T23:42:11.134Z,68.85
2023-12-12T23:47:12.848Z,80.63
2023-12-12T23:52:14.497Z,76.03
2023-12-12T23:57:16.160Z,68.97
